EGHE/ISC METAR and TAF weather

Enter ICAO airport designator
Station Type Date Time Source
EGHE METAR 2018/07/21 11:50 UTC NOAA

EGHE 211150Z 35013KT 9999 FEW008 BKN025 19/17 Q1015


Station Type Date Time Source
EGHE Decoded METAR 2018/07/21 11:50 UTC NOAA

Scilly, Saint Mary'S, United Kingdom (EGHE) 49-55N 006-18W 0M
Jul 21, 2018 - 07:50 AM EDT / 2018.07.21 1150 UTC
Wind: from the N (350 degrees) at 15 MPH (13 KT):0
Visibility: greater than 7 mile(s):0
Sky conditions: mostly cloudy
Temperature: 66 F (19 C)
Dew Point: 62 F (17 C)
Relative Humidity: 88%
Pressure (altimeter): 29.97 in. Hg (1015 hPa)
ob: EGHE 211150Z 35013KT 9999 FEW008 BKN025 19/17 Q1015
cycle: 12

Station Type Date Time Source
EGHE TAF UTC NOAA

Error!


Example: see airport list